createdAt,value
2022-12-11T00:30:59.655Z,0
2022-12-11T00:31:40.260Z,0
2022-12-11T00:32:20.745Z,0
2022-12-11T00:33:01.199Z,0
2022-12-11T00:33:41.740Z,0
2022-12-11T00:34:22.203Z,0
2022-12-11T00:35:02.670Z,0
2022-12-11T00:35:43.214Z,0
2022-12-11T00:36:23.762Z,0
2022-12-11T00:37:44.641Z,0
2022-12-11T00:38:25.152Z,0
2022-12-11T00:45:10.525Z,0
2022-12-11T00:45:50.762Z,0
2022-12-11T00:46:31.274Z,0
2022-12-11T00:47:11.668Z,0
2022-12-11T00:47:52.139Z,0
2022-12-11T00:48:32.714Z,0
2022-12-11T00:49:13.208Z,0
2022-12-11T00:49:53.709Z,0
2022-12-11T00:50:34.244Z,0
2022-12-11T00:51:14.763Z,0
2022-12-11T00:51:55.269Z,0
2022-12-11T00:58:40.085Z,0
2022-12-11T00:59:20.545Z,0
2022-12-11T01:00:01.070Z,0
2022-12-11T01:00:41.542Z,0
2022-12-11T01:01:22.126Z,0
2022-12-11T01:02:03.078Z,0
2022-12-11T01:02:43.573Z,0
2022-12-11T01:03:24.063Z,0
2022-12-11T01:04:04.611Z,0
2022-12-11T01:11:29.985Z,0
2022-12-11T01:12:10.485Z,0
2022-12-11T01:12:51.017Z,0
2022-12-11T01:13:31.514Z,0
2022-12-11T01:14:12.053Z,0
2022-12-11T01:14:52.500Z,0
2022-12-11T01:15:33.647Z,0
2022-12-11T01:16:13.595Z,0
2022-12-11T01:16:54.026Z,0
2022-12-11T01:18:14.994Z,0
2022-12-11T01:25:00.005Z,0
2022-12-11T01:25:40.534Z,0
2022-12-11T01:26:21.049Z,0
2022-12-11T01:27:01.569Z,0
2022-12-11T01:27:42.087Z,0
2022-12-11T01:28:22.595Z,0
2022-12-11T01:29:03.049Z,0
2022-12-11T01:29:43.566Z,0
2022-12-11T01:30:24.029Z,0
2022-12-11T01:31:04.552Z,0
2022-12-11T01:31:45.065Z,0
2022-12-11T01:38:29.926Z,0
2022-12-11T01:39:10.422Z,0
2022-12-11T01:39:50.935Z,0
2022-12-11T01:40:31.461Z,0
2022-12-11T01:41:11.970Z,0
2022-12-11T01:41:52.442Z,0
2022-12-11T01:42:32.883Z,0
2022-12-11T01:43:13.444Z,0
2022-12-11T01:43:53.903Z,0
2022-12-11T01:44:34.380Z,0
2022-12-11T01:45:14.912Z,0
2022-12-11T01:51:59.924Z,0
2022-12-11T01:52:40.386Z,0
2022-12-11T01:53:20.900Z,0
2022-12-11T01:54:01.391Z,0
2022-12-11T01:54:41.878Z,0
2022-12-11T01:55:22.378Z,0
2022-12-11T01:56:02.901Z,0
2022-12-11T01:56:43.372Z,0
2022-12-11T01:57:23.896Z,0
2022-12-11T01:58:04.389Z,0
2022-12-11T01:58:44.887Z,0
2022-12-11T02:05:29.915Z,0
2022-12-11T02:06:10.505Z,0
2022-12-11T02:06:50.979Z,0
2022-12-11T02:07:31.415Z,0
2022-12-11T02:08:52.450Z,0
2022-12-11T02:09:32.906Z,0
2022-12-11T02:10:13.380Z,0
2022-12-11T02:10:53.875Z,0
2022-12-11T02:11:34.351Z,0
2022-12-11T02:12:14.879Z,0
2022-12-11T02:19:40.282Z,0
2022-12-11T02:20:20.737Z,0
2022-12-11T02:21:01.241Z,0
2022-12-11T02:21:42.433Z,0
2022-12-11T02:22:22.930Z,0
2022-12-11T02:23:03.401Z,0
2022-12-11T02:23:43.931Z,0
2022-12-11T02:24:24.363Z,0
2022-12-11T02:25:04.894Z,0
2022-12-11T02:31:49.992Z,0
2022-12-11T02:32:30.350Z,0
2022-12-11T02:33:10.863Z,0
2022-12-11T02:33:51.395Z,0
2022-12-11T02:34:31.835Z,0
2022-12-11T02:35:12.691Z,0
2022-12-11T02:35:52.812Z,0
2022-12-11T02:36:33.303Z,0
2022-12-11T02:37:13.849Z,0
2022-12-11T02:37:54.275Z,0
2022-12-11T02:38:34.818Z,0
2022-12-11T02:43:29.982Z,0
2022-12-11T02:44:10.301Z,0
2022-12-11T02:44:50.780Z,0
2022-12-11T02:45:31.328Z,0
2022-12-11T02:46:11.772Z,0
2022-12-11T02:47:32.744Z,0
2022-12-11T02:48:13.268Z,0
2022-12-11T02:48:53.739Z,0
2022-12-11T02:49:34.230Z,0
2022-12-11T02:50:14.766Z,0
2022-12-11T02:53:54.692Z,0
2022-12-11T02:54:35.224Z,0
2022-12-11T02:55:15.729Z,0
2022-12-11T02:55:56.233Z,0
2022-12-11T02:56:36.677Z,0
2022-12-11T02:57:17.188Z,0
2022-12-11T02:57:57.664Z,0
2022-12-11T02:58:38.138Z,0
2022-12-11T02:59:18.639Z,0
2022-12-11T02:59:59.140Z,0
2022-12-11T03:00:39.659Z,0
2022-12-11T03:07:24.718Z,0
2022-12-11T03:08:05.231Z,0
2022-12-11T03:08:45.682Z,0
2022-12-11T03:09:26.153Z,0
2022-12-11T03:10:06.668Z,0
2022-12-11T03:10:47.159Z,0
2022-12-11T03:11:27.601Z,0
2022-12-11T03:12:08.104Z,0
2022-12-11T03:12:53.149Z,0
2022-12-11T03:13:29.148Z,0
2022-12-11T03:14:09.666Z,0
2022-12-11T03:20:54.655Z,0
2022-12-11T03:21:35.111Z,0
2022-12-11T03:22:15.685Z,0
2022-12-11T03:22:56.210Z,0
2022-12-11T03:23:36.734Z,0
2022-12-11T03:24:17.185Z,0
2022-12-11T03:24:57.696Z,0
2022-12-11T03:25:38.210Z,0
2022-12-11T03:26:18.755Z,0
2022-12-11T03:27:01.014Z,0
2022-12-11T03:34:24.691Z,0
2022-12-11T03:35:05.182Z,0
2022-12-11T03:35:45.651Z,0
2022-12-11T03:36:26.215Z,0
2022-12-11T03:37:06.668Z,0
2022-12-11T03:37:47.149Z,0
2022-12-11T03:38:27.636Z,0
2022-12-11T03:39:08.167Z,0
2022-12-11T03:39:48.706Z,0
2022-12-11T03:40:29.174Z,0
2022-12-11T03:41:09.648Z,0
2022-12-11T03:47:54.669Z,0
2022-12-11T03:48:35.163Z,0
2022-12-11T03:49:15.633Z,0
2022-12-11T03:49:56.199Z,0
2022-12-11T03:50:36.617Z,0
2022-12-11T03:51:17.101Z,0
2022-12-11T03:51:57.633Z,0
2022-12-11T03:53:18.612Z,0
2022-12-11T03:53:59.077Z,0
2022-12-11T03:54:39.559Z,0
2022-12-11T04:01:24.662Z,0
2022-12-11T04:02:05.244Z,0
2022-12-11T04:02:45.610Z,0
2022-12-11T04:03:26.103Z,0
2022-12-11T04:04:06.624Z,0
2022-12-11T04:04:47.069Z,0
2022-12-11T04:05:27.622Z,0
2022-12-11T04:06:08.170Z,0
2022-12-11T04:06:48.694Z,0
2022-12-11T04:07:29.172Z,0
2022-12-11T04:08:09.745Z,0
2022-12-11T04:14:54.629Z,0
2022-12-11T04:15:35.212Z,0
2022-12-11T04:18:48.957Z,0
2022-12-11T04:19:29.221Z,0
2022-12-11T04:20:09.720Z,0
2022-12-11T04:20:50.172Z,0
2022-12-11T04:21:32.881Z,0
2022-12-11T04:22:11.163Z,0
2022-12-11T04:22:51.683Z,0
2022-12-11T04:23:32.175Z,0
2022-12-11T04:24:12.667Z,0
2022-12-11T04:24:53.153Z,0
2022-12-11T04:25:33.614Z,0
2022-12-11T04:32:18.551Z,0
2022-12-11T04:32:59.027Z,0
2022-12-11T04:33:39.507Z,0
2022-12-11T04:34:20.023Z,0
2022-12-11T04:35:00.489Z,0
2022-12-11T04:35:40.987Z,0
2022-12-11T04:36:21.461Z,0
2022-12-11T04:37:01.949Z,0
2022-12-11T04:37:42.471Z,0
2022-12-11T04:38:22.957Z,0
2022-12-11T04:39:03.404Z,0
2022-12-11T04:46:28.871Z,0
2022-12-11T04:47:09.314Z,0
2022-12-11T04:47:49.795Z,0
2022-12-11T04:48:30.292Z,0
2022-12-11T04:49:10.769Z,0
2022-12-11T04:49:51.246Z,0
2022-12-11T04:50:31.766Z,0
2022-12-11T04:51:12.234Z,0
2022-12-11T04:52:33.248Z,0
2022-12-11T04:53:13.717Z,0
2022-12-11T04:59:58.614Z,0
2022-12-11T05:00:39.103Z,0
2022-12-11T05:01:19.708Z,0
2022-12-11T05:02:00.166Z,0
2022-12-11T05:02:40.676Z,0
2022-12-11T05:03:21.085Z,0
2022-12-11T05:04:01.552Z,0
2022-12-11T05:04:42.034Z,0
2022-12-11T05:05:22.501Z,0
2022-12-11T05:06:02.976Z,0
2022-12-11T05:06:43.492Z,0
2022-12-11T05:14:08.901Z,0
2022-12-11T05:14:49.384Z,0
2022-12-11T05:15:29.856Z,0
2022-12-11T05:16:10.408Z,0
2022-12-11T05:17:31.279Z,0
2022-12-11T05:18:11.791Z,0
2022-12-11T05:18:52.269Z,0
2022-12-11T05:19:32.765Z,0
2022-12-11T05:20:13.266Z,0
2022-12-11T05:20:53.788Z,0
2022-12-11T05:27:38.740Z,0
2022-12-11T05:28:19.203Z,0
2022-12-11T05:28:59.684Z,0
2022-12-11T05:29:40.209Z,0
2022-12-11T05:30:20.682Z,0
2022-12-11T05:31:01.224Z,0
2022-12-11T05:31:41.667Z,0
2022-12-11T05:32:22.110Z,0
2022-12-11T05:33:02.581Z,0
2022-12-11T05:33:43.064Z,0
2022-12-11T05:41:48.868Z,0
2022-12-11T05:42:29.389Z,0
2022-12-11T05:43:09.838Z,0
2022-12-11T05:43:50.318Z,0
2022-12-11T05:44:30.796Z,0
2022-12-11T05:45:11.497Z,0
2022-12-11T05:45:51.791Z,0
2022-12-11T05:46:32.354Z,0
2022-12-11T05:47:12.750Z,0
2022-12-11T05:47:53.261Z,0
2022-12-11T05:48:33.758Z,0
2022-12-11T06:32:24.474Z,0
2022-12-11T06:33:04.989Z,0
2022-12-11T06:33:45.440Z,0
2022-12-11T06:34:25.895Z,0
2022-12-11T06:35:06.372Z,0
2022-12-11T06:35:46.835Z,0
2022-12-11T06:36:27.355Z,0
2022-12-11T06:37:07.841Z,0
2022-12-11T06:37:48.307Z,0
2022-12-11T06:38:28.798Z,0
2022-12-11T06:39:09.321Z,0
2022-12-11T06:45:56.858Z,0
2022-12-11T06:46:34.585Z,0
2022-12-11T06:47:15.071Z,0
2022-12-11T06:47:55.569Z,0
2022-12-11T06:49:16.531Z,0
2022-12-11T06:49:57.014Z,0
2022-12-11T06:50:37.462Z,0
2022-12-11T06:51:18.008Z,0
2022-12-11T06:51:58.501Z,0
2022-12-11T06:52:38.877Z,0
2022-12-11T06:53:19.364Z,0
2022-12-11T07:00:04.172Z,0
2022-12-11T07:00:44.709Z,0
2022-12-11T07:01:25.232Z,0
2022-12-11T07:02:05.705Z,0
2022-12-11T07:02:46.190Z,0
2022-12-11T07:03:26.668Z,0
2022-12-11T07:04:07.131Z,0
2022-12-11T07:04:51.881Z,0
2022-12-11T07:05:28.062Z,0
2022-12-11T07:06:08.596Z,0
2022-12-11T07:06:49.054Z,0
2022-12-11T07:14:14.442Z,0
2022-12-11T07:14:54.939Z,0
2022-12-11T07:15:40.202Z,0
2022-12-11T07:16:56.422Z,4
2022-12-11T07:17:36.887Z,4
2022-12-11T07:18:17.393Z,4
2022-12-11T07:18:57.903Z,4
2022-12-11T07:19:38.339Z,4
2022-12-11T07:20:18.829Z,4
2022-12-11T07:20:59.336Z,4
2022-12-11T07:27:44.238Z,8
2022-12-11T07:28:24.757Z,8
2022-12-11T07:29:05.230Z,12
2022-12-11T07:29:45.695Z,8
2022-12-11T07:30:26.195Z,12
2022-12-11T07:31:06.677Z,16
2022-12-11T07:31:47.175Z,12
2022-12-11T07:32:27.859Z,16
2022-12-11T07:33:08.156Z,12
2022-12-11T07:33:48.637Z,16
2022-12-11T07:34:29.207Z,16
2022-12-11T07:41:14.062Z,24
2022-12-11T07:41:54.548Z,28
2022-12-11T07:42:35.017Z,28
2022-12-11T07:43:15.548Z,28
2022-12-11T07:43:56.003Z,28
2022-12-11T07:44:36.474Z,28
2022-12-11T07:45:16.980Z,32
2022-12-11T07:45:57.498Z,32
2022-12-11T07:46:37.942Z,32
2022-12-11T07:47:18.432Z,32
2022-12-11T07:47:58.964Z,36
2022-12-11T07:55:24.232Z,40
2022-12-11T07:56:04.721Z,44
2022-12-11T07:56:48.605Z,44
2022-12-11T07:57:25.701Z,44
2022-12-11T07:58:06.234Z,48
2022-12-11T07:58:46.679Z,52
2022-12-11T07:59:27.160Z,48
2022-12-11T08:00:07.723Z,56
2022-12-11T08:00:48.255Z,60
2022-12-11T08:01:28.745Z,60
2022-12-11T08:02:09.291Z,64
2022-12-11T08:05:31.667Z,80
2022-12-11T08:08:54.134Z,84
2022-12-11T08:09:34.583Z,84
2022-12-11T08:10:15.059Z,84
2022-12-11T08:10:55.550Z,80
2022-12-11T08:11:36.058Z,84
2022-12-11T08:12:16.503Z,80
2022-12-11T08:12:57.043Z,84
2022-12-11T08:13:37.520Z,84
2022-12-11T08:14:17.992Z,88
2022-12-11T08:14:58.535Z,92
2022-12-11T08:15:39.035Z,96
2022-12-11T08:23:04.479Z,108
2022-12-11T08:23:44.957Z,112
2022-12-11T08:24:25.462Z,116
2022-12-11T08:25:05.948Z,120
2022-12-11T08:25:46.426Z,120
2022-12-11T08:26:26.941Z,120
2022-12-11T08:27:07.390Z,124
2022-12-11T08:27:47.875Z,124
2022-12-11T08:28:28.374Z,124
2022-12-11T08:29:08.830Z,124
2022-12-11T08:36:34.273Z,108
2022-12-11T08:37:14.769Z,112
2022-12-11T08:37:55.215Z,112
2022-12-11T08:38:35.688Z,116
2022-12-11T08:39:16.162Z,120
2022-12-11T08:44:19.237Z,104
2022-12-11T08:44:59.614Z,100
2022-12-11T08:45:40.203Z,100
2022-12-11T08:46:20.724Z,96
2022-12-11T08:47:01.104Z,100
2022-12-11T08:47:41.600Z,96
2022-12-11T08:50:56.288Z,104
2022-12-11T08:51:36.322Z,104
2022-12-11T08:52:16.925Z,108
2022-12-11T08:52:57.344Z,104
2022-12-11T08:53:37.951Z,104
2022-12-11T08:54:18.468Z,104
2022-12-11T08:54:59.035Z,100
2022-12-11T08:55:39.519Z,96
2022-12-11T08:56:20.037Z,96
2022-12-11T08:57:00.489Z,96
2022-12-11T09:03:45.455Z,120
2022-12-11T09:04:25.994Z,124
2022-12-11T09:05:06.535Z,124
2022-12-11T09:05:46.981Z,124
2022-12-11T09:06:27.484Z,124
2022-12-11T09:07:08.211Z,124
2022-12-11T09:07:48.730Z,124
2022-12-11T09:08:29.247Z,120
2022-12-11T09:09:09.728Z,120
2022-12-11T09:09:50.137Z,120
2022-12-11T09:17:15.747Z,208
2022-12-11T09:17:56.234Z,208
2022-12-11T09:18:36.733Z,200
2022-12-11T09:19:17.278Z,200
2022-12-11T09:19:57.794Z,196
2022-12-11T09:20:38.249Z,188
2022-12-11T09:21:18.747Z,180
2022-12-11T09:21:59.172Z,172
2022-12-11T09:22:39.688Z,164
2022-12-11T09:23:20.150Z,164
2022-12-11T09:30:05.263Z,180
2022-12-11T09:30:45.664Z,176
2022-12-11T09:31:26.193Z,180
2022-12-11T09:32:06.716Z,184
2022-12-11T09:32:47.169Z,188
2022-12-11T09:33:27.653Z,188
2022-12-11T09:34:08.180Z,188
2022-12-11T09:34:48.705Z,184
2022-12-11T09:35:29.201Z,180
2022-12-11T09:36:09.777Z,172
2022-12-11T09:36:50.193Z,172
2022-12-11T09:42:32.146Z,212
2022-12-11T09:43:12.343Z,216
2022-12-11T09:43:52.854Z,220
2022-12-11T09:44:33.329Z,228
2022-12-11T09:45:13.916Z,236
2022-12-11T09:45:54.409Z,240
2022-12-11T09:46:35.075Z,240
2022-12-11T09:47:15.536Z,236
2022-12-11T09:54:00.667Z,236
2022-12-11T09:54:41.204Z,256
2022-12-11T09:55:21.725Z,276
2022-12-11T09:56:02.185Z,288
2022-12-11T09:56:42.705Z,292
2022-12-11T09:57:23.184Z,276
2022-12-11T09:58:03.665Z,276
2022-12-11T09:58:44.305Z,280
2022-12-11T09:59:24.798Z,288
2022-12-11T10:00:05.869Z,280
2022-12-11T10:00:45.848Z,272
2022-12-11T10:07:30.708Z,284
2022-12-11T10:08:11.214Z,304
2022-12-11T10:08:51.719Z,328
2022-12-11T10:09:32.190Z,340
2022-12-11T10:10:12.708Z,340
2022-12-11T10:10:53.198Z,328
2022-12-11T10:11:33.676Z,316
2022-12-11T10:12:14.201Z,304
2022-12-11T10:12:54.656Z,296
2022-12-11T10:13:35.151Z,292
2022-12-11T10:14:15.645Z,292
2022-12-11T10:21:00.624Z,324
2022-12-11T10:21:41.188Z,324
2022-12-11T10:22:21.614Z,312
2022-12-11T10:23:02.102Z,296
2022-12-11T10:23:42.576Z,292
2022-12-11T10:24:42.139Z,284
2022-12-11T10:25:12.095Z,280
2022-12-11T10:25:43.973Z,276
2022-12-11T10:26:24.438Z,276
2022-12-11T10:27:04.941Z,288
2022-12-11T10:27:45.393Z,304
2022-12-11T10:28:25.888Z,324
2022-12-11T10:34:30.970Z,324
2022-12-11T10:35:11.744Z,316
2022-12-11T10:35:51.925Z,308
2022-12-11T10:36:32.394Z,304
2022-12-11T10:37:12.905Z,308
2022-12-11T10:37:53.392Z,316
2022-12-11T10:38:33.821Z,312
2022-12-11T10:39:14.319Z,300
2022-12-11T10:39:54.884Z,304
2022-12-11T10:40:35.292Z,328
2022-12-11T10:41:15.828Z,364
2022-12-11T10:48:00.764Z,336
2022-12-11T10:48:45.376Z,332
2022-12-11T10:49:21.830Z,312
2022-12-11T10:50:02.291Z,292
2022-12-11T10:50:42.817Z,276
2022-12-11T10:51:23.314Z,272
2022-12-11T10:52:03.793Z,276
2022-12-11T10:52:44.264Z,288
2022-12-11T10:54:07.271Z,304
2022-12-11T10:54:45.697Z,312
2022-12-11T11:01:30.673Z,300
2022-12-11T11:02:11.124Z,304
2022-12-11T11:02:51.630Z,304
2022-12-11T11:03:32.139Z,300
2022-12-11T11:04:12.569Z,288
2022-12-11T11:04:53.070Z,276
2022-12-11T11:05:33.552Z,264
2022-12-11T11:06:14.045Z,240
2022-12-11T11:06:54.531Z,224
2022-12-11T11:07:35.078Z,208
2022-12-11T11:08:15.596Z,200
2022-12-11T11:15:40.950Z,168
2022-12-11T11:16:21.460Z,172
2022-12-11T11:17:01.886Z,168
2022-12-11T11:17:51.238Z,184
2022-12-11T11:18:22.824Z,196
2022-12-11T11:19:03.323Z,208
2022-12-11T11:19:43.807Z,216
2022-12-11T11:20:24.275Z,224
2022-12-11T11:21:04.792Z,232
2022-12-11T11:21:45.252Z,240
2022-12-11T11:29:10.629Z,260
2022-12-11T11:29:53.195Z,244
2022-12-11T11:30:31.663Z,232
2022-12-11T11:31:12.189Z,220
2022-12-11T11:31:52.619Z,200
2022-12-11T11:32:33.116Z,188
2022-12-11T11:33:13.616Z,180
2022-12-11T11:33:54.095Z,176
2022-12-11T11:34:34.559Z,180
2022-12-11T11:38:03.594Z,228
2022-12-11T11:38:44.056Z,260
2022-12-11T11:39:24.556Z,288
2022-12-11T11:40:05.043Z,320
2022-12-11T11:40:45.567Z,344
2022-12-11T11:41:26.116Z,380
2022-12-11T11:42:06.599Z,400
2022-12-11T11:42:47.044Z,396
2022-12-11T11:43:27.612Z,404
2022-12-11T11:44:08.157Z,424
2022-12-11T11:50:13.492Z,632
2022-12-11T11:50:53.942Z,640
2022-12-11T11:51:34.440Z,660
2022-12-11T11:52:14.934Z,704
2022-12-11T11:52:55.399Z,728
2022-12-11T11:53:35.893Z,736
2022-12-11T11:54:16.379Z,752
2022-12-11T12:32:28.845Z,368
2022-12-11T12:33:09.076Z,368
2022-12-11T12:33:49.550Z,376
2022-12-11T12:34:30.072Z,388
2022-12-11T12:35:11.023Z,404
2022-12-11T12:35:51.170Z,440
2022-12-11T12:36:31.580Z,440
2022-12-11T12:37:12.073Z,428
2022-12-11T12:37:52.620Z,432
2022-12-11T12:38:33.078Z,444
2022-12-11T12:39:13.556Z,456
2022-12-11T12:46:38.963Z,436
2022-12-11T12:47:19.439Z,416
2022-12-11T12:47:59.966Z,388
2022-12-11T12:48:40.438Z,372
2022-12-11T12:49:21.123Z,356
2022-12-11T12:50:01.528Z,348
2022-12-11T12:50:42.140Z,340
2022-12-11T12:51:22.610Z,328
2022-12-11T12:52:03.056Z,312
2022-12-11T12:52:43.532Z,300
2022-12-11T12:58:08.600Z,220
2022-12-11T12:58:49.109Z,216
2022-12-11T12:59:29.577Z,212
2022-12-11T13:00:12.973Z,212
2022-12-11T13:00:50.622Z,212
2022-12-11T13:01:31.170Z,212
2022-12-11T13:02:11.582Z,204
2022-12-11T13:02:52.074Z,204
2022-12-11T13:03:32.582Z,200
2022-12-11T13:04:26.331Z,200
2022-12-11T13:04:56.184Z,204
2022-12-11T13:11:38.541Z,316
2022-12-11T13:12:19.067Z,308
2022-12-11T13:12:59.529Z,296
2022-12-11T13:13:40.026Z,300
2022-12-11T13:14:20.550Z,312
2022-12-11T13:15:00.960Z,324
2022-12-11T13:15:41.487Z,340
2022-12-11T13:16:22.060Z,344
2022-12-11T13:17:02.487Z,336
2022-12-11T13:17:43.023Z,328
2022-12-11T13:20:57.118Z,280
2022-12-11T13:21:37.270Z,268
2022-12-11T13:22:17.732Z,268
2022-12-11T13:22:58.253Z,264
2022-12-11T13:23:38.717Z,272
2022-12-11T13:24:19.180Z,272
2022-12-11T13:24:59.704Z,280
2022-12-11T13:25:41.686Z,288
2022-12-11T13:26:20.633Z,292
2022-12-11T13:27:01.111Z,280
2022-12-11T13:27:41.611Z,272
2022-12-11T13:33:46.755Z,256
2022-12-11T13:34:27.286Z,256
2022-12-11T13:35:07.848Z,248
2022-12-11T13:35:48.317Z,244
2022-12-11T13:36:28.813Z,236
2022-12-11T13:37:09.277Z,228
2022-12-11T13:37:49.777Z,216
2022-12-11T13:38:30.297Z,204
2022-12-11T13:39:10.761Z,200
2022-12-11T13:39:51.242Z,196
2022-12-11T13:40:31.737Z,192
2022-12-11T13:47:16.831Z,192
2022-12-11T13:47:57.328Z,192
2022-12-11T13:48:37.798Z,192
2022-12-11T13:49:18.261Z,188
2022-12-11T13:49:58.757Z,184
2022-12-11T13:50:39.207Z,172
2022-12-11T13:51:19.674Z,168
2022-12-11T13:52:00.154Z,164
2022-12-11T13:53:21.095Z,160
2022-12-11T13:54:01.574Z,156
2022-12-11T14:00:46.684Z,140
2022-12-11T14:01:27.183Z,144
2022-12-11T14:02:07.687Z,140
2022-12-11T14:02:48.168Z,140
2022-12-11T14:03:28.620Z,144
2022-12-11T14:04:09.127Z,148
2022-12-11T14:04:49.629Z,144
2022-12-11T14:05:30.084Z,144
2022-12-11T14:06:14.831Z,148
2022-12-11T14:06:51.085Z,148
2022-12-11T14:07:31.593Z,148
2022-12-11T14:14:56.960Z,140
2022-12-11T14:15:37.496Z,140
2022-12-11T14:16:17.977Z,136
2022-12-11T14:16:58.450Z,136
2022-12-11T14:17:38.909Z,136
2022-12-11T14:18:59.926Z,140
2022-12-11T14:19:40.395Z,144
2022-12-11T14:20:20.875Z,144
2022-12-11T14:21:01.369Z,148
2022-12-11T14:21:41.899Z,144
2022-12-11T14:28:26.660Z,112
2022-12-11T14:29:07.122Z,112
2022-12-11T14:29:47.591Z,108
2022-12-11T14:30:28.081Z,104
2022-12-11T14:31:08.564Z,96
2022-12-11T14:31:49.068Z,92
2022-12-11T14:32:29.560Z,88
2022-12-11T14:33:10.069Z,88
2022-12-11T14:33:50.488Z,88
2022-12-11T14:34:30.966Z,92
2022-12-11T14:35:11.461Z,92
2022-12-11T14:35:51.933Z,88
2022-12-11T14:42:36.772Z,84
2022-12-11T14:44:49.861Z,80
2022-12-11T14:45:30.356Z,80
2022-12-11T14:46:10.845Z,76
2022-12-11T14:46:51.285Z,80
2022-12-11T14:47:31.752Z,76
2022-12-11T14:48:12.246Z,76
2022-12-11T14:48:56.174Z,72
2022-12-11T14:49:33.229Z,72
2022-12-11T14:50:13.951Z,64
2022-12-11T14:50:54.237Z,64
2022-12-11T14:59:00.039Z,56
2022-12-11T14:59:40.556Z,52
2022-12-11T15:00:21.008Z,52
2022-12-11T15:01:01.537Z,52
2022-12-11T15:01:42.036Z,44
2022-12-11T15:02:22.579Z,48
2022-12-11T15:03:03.047Z,40
2022-12-11T15:03:43.500Z,44
2022-12-11T15:05:04.493Z,40
2022-12-11T15:11:25.848Z,32
2022-12-11T15:12:06.272Z,28
2022-12-11T15:12:46.647Z,28
2022-12-11T15:13:27.163Z,28
2022-12-11T15:14:07.597Z,28
2022-12-11T15:14:48.089Z,24
2022-12-11T15:15:28.625Z,20
2022-12-11T15:16:09.087Z,24
2022-12-11T15:16:49.681Z,20
2022-12-11T15:17:30.210Z,20
2022-12-11T15:18:10.741Z,20
2022-12-11T15:24:15.746Z,16
2022-12-11T15:24:56.236Z,20
2022-12-11T15:25:36.711Z,16
2022-12-11T15:26:17.241Z,16
2022-12-11T15:26:57.746Z,16
2022-12-11T15:27:38.190Z,16
2022-12-11T15:28:18.698Z,12
2022-12-11T15:28:59.208Z,12
2022-12-11T15:29:39.674Z,12
2022-12-11T15:30:20.163Z,12
2022-12-11T15:31:00.734Z,12
2022-12-11T15:37:45.828Z,8
2022-12-11T15:38:26.365Z,4
2022-12-11T15:39:06.837Z,4
2022-12-11T15:39:47.326Z,4
2022-12-11T15:40:27.824Z,4
2022-12-11T15:41:08.315Z,4
2022-12-11T15:41:48.800Z,4
2022-12-11T15:42:29.321Z,4
2022-12-11T15:43:09.797Z,4
2022-12-11T15:43:53.967Z,0
2022-12-11T15:50:35.430Z,0
2022-12-11T15:51:15.908Z,0
2022-12-11T15:51:56.420Z,0
2022-12-11T15:52:36.963Z,0
2022-12-11T15:53:17.461Z,0
2022-12-11T15:53:57.936Z,0
2022-12-11T15:54:38.429Z,0
2022-12-11T15:55:18.878Z,0
2022-12-11T15:55:59.417Z,0
2022-12-11T15:56:39.872Z,0
2022-12-11T15:57:20.410Z,0
2022-12-11T16:04:45.763Z,0
2022-12-11T16:05:26.265Z,0
2022-12-11T16:06:06.760Z,0
2022-12-11T16:06:47.323Z,0
2022-12-11T16:07:27.771Z,0
2022-12-11T16:08:08.301Z,0
2022-12-11T16:08:48.762Z,0
2022-12-11T16:09:29.293Z,0
2022-12-11T16:10:09.731Z,0
2022-12-11T16:10:50.254Z,0
2022-12-11T16:11:30.749Z,0
2022-12-11T16:18:15.971Z,0
2022-12-11T16:18:56.568Z,0
2022-12-11T16:19:37.009Z,0
2022-12-11T16:20:17.560Z,0
2022-12-11T16:20:58.120Z,0
2022-12-11T16:21:38.598Z,0
2022-12-11T16:22:19.088Z,0
2022-12-11T16:22:59.591Z,0
2022-12-11T16:23:40.059Z,0
2022-12-11T16:24:20.533Z,0
2022-12-11T16:31:05.638Z,0
2022-12-11T16:31:46.154Z,0
2022-12-11T16:32:26.616Z,0
2022-12-11T16:33:11.965Z,0
2022-12-11T16:33:47.527Z,0
2022-12-11T16:34:27.999Z,0
2022-12-11T16:35:08.536Z,0
2022-12-11T16:35:49.021Z,0
2022-12-11T16:36:29.456Z,0
2022-12-11T16:37:09.951Z,0
2022-12-11T16:37:50.413Z,0
2022-12-11T16:45:13.680Z,0
2022-12-11T16:45:48.455Z,0
2022-12-11T16:46:29.010Z,0
2022-12-11T16:47:09.543Z,0
2022-12-11T16:47:49.952Z,0
2022-12-11T16:48:30.429Z,0
2022-12-11T16:49:10.953Z,0
2022-12-11T16:49:51.445Z,0
2022-12-11T16:50:31.991Z,0
2022-12-11T16:51:12.436Z,0
2022-12-11T16:58:37.827Z,0
2022-12-11T16:59:18.294Z,0
2022-12-11T16:59:58.894Z,0
2022-12-11T17:00:39.306Z,0
2022-12-11T17:01:19.850Z,0
2022-12-11T17:02:00.287Z,0
2022-12-11T17:02:40.778Z,0
2022-12-11T17:03:21.234Z,0
2022-12-11T17:04:01.702Z,0
2022-12-11T17:04:42.193Z,0
2022-12-11T17:05:22.685Z,0
2022-12-11T17:11:43.774Z,0
2022-12-11T17:12:24.317Z,0
2022-12-11T17:13:04.913Z,0
2022-12-11T17:13:45.334Z,0
2022-12-11T17:14:25.863Z,0
2022-12-11T17:15:06.333Z,0
2022-12-11T17:15:46.851Z,0
2022-12-11T17:16:27.303Z,0
2022-12-11T17:17:07.771Z,0
2022-12-11T17:17:48.264Z,0
2022-12-11T17:25:13.893Z,0
2022-12-11T17:25:54.137Z,0
2022-12-11T17:26:34.641Z,0
2022-12-11T17:27:15.134Z,0
2022-12-11T17:27:55.613Z,0
2022-12-11T17:28:36.110Z,0
2022-12-11T17:29:16.620Z,0
2022-12-11T17:29:57.179Z,0
2022-12-11T17:30:37.561Z,0
2022-12-11T17:31:18.153Z,0
2022-12-11T17:34:36.295Z,0
2022-12-11T17:35:12.458Z,0
2022-12-11T17:35:52.719Z,0
2022-12-11T17:36:33.203Z,0
2022-12-11T17:37:13.717Z,0
2022-12-11T17:37:54.160Z,0
2022-12-11T17:38:34.643Z,0
2022-12-11T17:39:15.132Z,0
2022-12-11T17:39:55.702Z,0
2022-12-11T17:40:36.112Z,0
2022-12-11T17:41:20.242Z,0
2022-12-11T17:48:41.937Z,0
2022-12-11T17:49:22.401Z,0
2022-12-11T17:52:44.262Z,0
2022-12-11T17:53:16.503Z,0
2022-12-11T17:53:56.939Z,0
2022-12-11T17:54:37.447Z,0
2022-12-11T18:34:07.919Z,0
2022-12-11T18:34:48.360Z,0
2022-12-11T18:35:28.872Z,0
2022-12-11T18:36:09.368Z,0
2022-12-11T18:36:49.864Z,0
2022-12-11T18:37:30.341Z,0
2022-12-11T18:38:10.822Z,0
2022-12-11T18:38:51.360Z,0
2022-12-11T18:39:31.840Z,0
2022-12-11T18:40:12.369Z,0
2022-12-11T18:40:52.895Z,0
2022-12-11T18:47:37.821Z,0
2022-12-11T18:48:18.283Z,0
2022-12-11T18:48:58.743Z,0
2022-12-11T18:49:39.282Z,0
2022-12-11T18:51:00.267Z,0
2022-12-11T18:51:40.760Z,0
2022-12-11T18:52:21.195Z,0
2022-12-11T18:53:01.755Z,0
2022-12-11T18:53:42.244Z,0
2022-12-11T18:54:22.691Z,0
2022-12-11T19:01:48.097Z,0
2022-12-11T19:02:28.620Z,0
2022-12-11T19:03:09.094Z,0
2022-12-11T19:03:49.588Z,0
2022-12-11T19:04:30.061Z,0
2022-12-11T19:05:11.066Z,0
2022-12-11T19:05:51.017Z,0
2022-12-11T19:06:31.555Z,0
2022-12-11T19:07:12.061Z,0
2022-12-11T19:15:22.232Z,0
2022-12-11T19:15:58.430Z,0
2022-12-11T19:16:38.917Z,0
2022-12-11T19:17:19.396Z,0
2022-12-11T19:17:59.970Z,0
2022-12-11T19:18:40.397Z,0
2022-12-11T19:19:20.867Z,0
2022-12-11T19:20:09.097Z,0
2022-12-11T19:20:53.837Z,0
2022-12-11T19:21:22.838Z,0
2022-12-11T19:28:07.783Z,0
2022-12-11T19:28:48.252Z,0
2022-12-11T19:29:28.763Z,0
2022-12-11T19:30:09.214Z,0
2022-12-11T19:30:49.686Z,0
2022-12-11T19:31:30.244Z,0
2022-12-11T19:32:10.675Z,0
2022-12-11T19:32:51.213Z,0
2022-12-11T19:36:04.876Z,0
2022-12-11T19:36:45.402Z,0
2022-12-11T19:37:25.852Z,0
2022-12-11T19:38:06.306Z,0
2022-12-11T19:44:10.578Z,0
2022-12-11T19:44:51.055Z,0
2022-12-11T19:45:31.545Z,0
2022-12-11T19:46:12.143Z,0
2022-12-11T19:46:52.564Z,0
2022-12-11T19:47:33.016Z,0
2022-12-11T19:48:13.515Z,0
2022-12-11T19:48:53.993Z,0
2022-12-11T19:49:34.446Z,0
2022-12-11T19:50:14.938Z,0
2022-12-11T19:57:40.412Z,0
2022-12-11T19:58:20.909Z,0
2022-12-11T19:59:01.390Z,0
2022-12-11T19:59:41.875Z,0
2022-12-11T20:00:22.357Z,0
2022-12-11T20:01:02.842Z,0
2022-12-11T20:01:43.370Z,0
2022-12-11T20:02:23.899Z,0
2022-12-11T20:03:04.344Z,0
2022-12-11T20:03:44.838Z,0
2022-12-11T20:04:25.339Z,0
2022-12-11T20:11:50.649Z,0
2022-12-11T20:12:31.182Z,0
2022-12-11T20:13:11.637Z,0
2022-12-11T20:13:52.138Z,0
2022-12-11T20:14:32.617Z,0
2022-12-11T20:15:13.328Z,0
2022-12-11T20:15:53.635Z,0
2022-12-11T20:17:02.000Z,0
2022-12-11T20:17:15.279Z,0
2022-12-11T20:17:55.078Z,0
2022-12-11T20:25:21.339Z,0
2022-12-11T20:26:00.836Z,0
2022-12-11T20:26:41.320Z,0
2022-12-11T20:27:21.803Z,0
2022-12-11T20:28:02.269Z,0
2022-12-11T20:28:42.771Z,0
2022-12-11T20:29:23.308Z,0
2022-12-11T20:30:03.752Z,0